createdAt,value
2022-11-06T00:03:48.122Z,6.11
2022-11-06T00:13:53.545Z,5.98
2022-11-06T00:18:56.184Z,5.97
2022-11-06T00:23:58.843Z,5.94
2022-11-06T00:29:01.451Z,6.02
2022-11-06T00:34:04.184Z,6.05
2022-11-06T00:39:06.846Z,5.98
2022-11-06T00:44:09.375Z,5.98
2022-11-06T00:49:11.974Z,5.92
2022-11-06T00:54:14.387Z,5.91
2022-11-06T00:59:17.113Z,5.87
2022-11-06T01:04:19.725Z,5.95
2022-11-06T01:09:22.426Z,5.97
2022-11-06T01:14:25.104Z,6
2022-11-06T01:19:30.805Z,5.97
2022-11-06T01:24:33.371Z,5.89
2022-11-06T01:29:35.856Z,5.87
2022-11-06T01:34:38.728Z,5.93
2022-11-06T01:39:41.364Z,5.86
2022-11-06T01:44:44.102Z,5.85
2022-11-06T02:15:00.313Z,6.06
2022-11-06T02:25:05.746Z,6.03
2022-11-06T02:30:08.335Z,6.1
2022-11-06T02:35:10.924Z,6.14
2022-11-06T02:40:16.255Z,6.09
2022-11-06T02:45:18.808Z,6.08
2022-11-06T02:50:21.413Z,6.1
2022-11-06T02:55:24.138Z,6.18
2022-11-06T03:00:26.799Z,6.12
2022-11-06T03:05:29.398Z,6.18
2022-11-06T03:10:31.977Z,6.19
2022-11-06T03:15:35.702Z,6.04
2022-11-06T03:20:38.229Z,5.95
2022-11-06T03:25:43.638Z,5.84
2022-11-06T03:30:46.422Z,5.79
2022-11-06T03:40:54.987Z,5.6
2022-11-06T03:45:57.445Z,5.57
2022-11-06T03:51:00.243Z,5.61
2022-11-06T03:56:02.725Z,5.52
2022-11-06T04:01:05.626Z,5.64
2022-11-06T04:06:08.456Z,5.6
2022-11-06T04:11:11.155Z,5.64
2022-11-06T04:16:13.955Z,5.63
2022-11-06T04:21:16.799Z,5.56
2022-11-06T04:31:22.363Z,5.48
2022-11-06T04:36:25.044Z,5.51
2022-11-06T04:41:28.129Z,5.48
2022-11-06T04:46:30.654Z,5.39
2022-11-06T04:51:33.318Z,5.38
2022-11-06T04:56:42.978Z,5.43
2022-11-06T05:01:41.859Z,5.39
2022-11-06T05:06:44.407Z,5.41
2022-11-06T05:11:46.999Z,5.36
2022-11-06T05:16:50.043Z,5.28
2022-11-06T05:21:55.794Z,5.22
2022-11-06T05:26:59.704Z,5.3
2022-11-06T05:32:01.089Z,5.24
2022-11-06T05:37:03.659Z,5.2
2022-11-06T05:47:08.815Z,5.27
2022-11-06T05:52:14.534Z,5.21
2022-11-06T05:57:17.312Z,5.18
2022-11-06T06:02:19.926Z,5.14
2022-11-06T06:07:25.340Z,5.15
2022-11-06T06:12:28.051Z,5.17
2022-11-06T06:17:30.687Z,5.2
2022-11-06T06:22:33.269Z,5.28
2022-11-06T06:27:35.942Z,5.49
2022-11-06T06:32:38.761Z,5.65
2022-11-06T06:37:41.276Z,5.73
2022-11-06T06:42:43.937Z,6.01
2022-11-06T06:47:46.969Z,6.18
2022-11-06T06:52:49.945Z,6.35
2022-11-06T06:57:52.494Z,6.61
2022-11-06T07:07:58.072Z,6.98
2022-11-06T07:13:00.655Z,7.29
2022-11-06T07:18:03.337Z,7.42
2022-11-06T07:28:08.557Z,7.46
2022-11-06T07:33:11.301Z,7.53
2022-11-06T07:38:14.017Z,7.67
2022-11-06T07:43:18.921Z,7.74
2022-11-06T07:48:21.548Z,7.81
2022-11-06T07:53:24.747Z,7.97
2022-11-06T07:58:27.166Z,8.06
2022-11-06T08:03:29.460Z,8.11
2022-11-06T08:08:32.238Z,8.17
2022-11-06T08:13:34.986Z,8.4
2022-11-06T08:23:40.319Z,8.73
2022-11-06T08:28:43.079Z,8.88
2022-11-06T08:38:48.455Z,9.38
2022-11-06T08:43:51.292Z,9.48
2022-11-06T08:48:53.924Z,9.73
2022-11-06T08:53:56.796Z,9.71
2022-11-06T08:58:59.876Z,10.03
2022-11-06T09:04:02.349Z,10.02
2022-11-06T09:09:05.000Z,10.06
2022-11-06T09:14:07.315Z,10.23
2022-11-06T09:19:10.010Z,10.38
2022-11-06T09:24:12.696Z,10.61
2022-11-06T09:29:15.748Z,10.86
2022-11-06T09:34:18.272Z,10.91
2022-11-06T09:39:20.993Z,11.02
2022-11-06T09:44:23.757Z,10.95
2022-11-06T09:49:29.339Z,11.01
2022-11-06T09:54:32.221Z,11.34
2022-11-06T09:59:35.128Z,11.5
2022-11-06T10:04:37.956Z,11.77
2022-11-06T10:09:40.580Z,11.87
2022-11-06T10:14:43.291Z,11.92
2022-11-06T10:19:45.961Z,12.19
2022-11-06T10:24:48.538Z,12.26
2022-11-06T10:29:51.189Z,12.45
2022-11-06T10:34:53.786Z,12.33
2022-11-06T10:40:02.428Z,12.32
2022-11-06T10:45:05.231Z,12.44
2022-11-06T10:50:08.058Z,12.36
2022-11-06T11:00:13.398Z,12.8
2022-11-06T11:05:16.626Z,12.95
2022-11-06T11:10:19.473Z,13.04
2022-11-06T11:15:22.116Z,13.06
2022-11-06T11:20:24.924Z,12.95
2022-11-06T11:25:28.116Z,12.9
2022-11-06T11:30:30.816Z,13.04
2022-11-06T11:35:36.230Z,13.08
2022-11-06T11:40:38.982Z,13.2
2022-11-06T11:45:41.599Z,12.77
2022-11-06T11:50:44.193Z,13
2022-11-06T11:55:46.781Z,13.02
2022-11-06T12:00:52.198Z,13.18
2022-11-06T12:05:54.890Z,13.12
2022-11-06T12:10:57.495Z,13.04
2022-11-06T12:21:11.523Z,13.03
2022-11-06T12:26:14.182Z,13.11
2022-11-06T12:31:16.829Z,13.05
2022-11-06T12:36:19.764Z,13.14
2022-11-06T12:41:22.202Z,12.88
2022-11-06T12:46:25.353Z,13.09
2022-11-06T12:51:28.184Z,12.99
2022-11-06T12:56:30.712Z,13.03
2022-11-06T13:01:33.541Z,13.15
2022-11-06T13:11:38.751Z,13.22
2022-11-06T13:16:41.352Z,13.19
2022-11-06T13:21:44.095Z,13.17
2022-11-06T13:26:46.595Z,13.01
2022-11-06T13:31:49.158Z,12.89
2022-11-06T13:36:51.888Z,12.85
2022-11-06T13:41:54.630Z,12.77
2022-11-06T13:46:57.267Z,12.8
2022-11-06T13:51:59.870Z,12.62
2022-11-06T13:57:02.469Z,12.66
2022-11-06T14:07:07.533Z,12.62
2022-11-06T14:12:14.898Z,12.48
2022-11-06T14:17:13.084Z,12.48
2022-11-06T14:22:15.905Z,12.41
2022-11-06T14:27:18.813Z,12.33
2022-11-06T14:32:21.355Z,12.26
2022-11-06T14:37:28.248Z,12.09
2022-11-06T14:42:27.534Z,12.01
2022-11-06T14:47:29.603Z,11.89
2022-11-06T14:52:32.194Z,11.85
2022-11-06T14:57:34.801Z,11.75
2022-11-06T15:02:37.395Z,11.65
2022-11-06T15:12:42.510Z,11.34
2022-11-06T15:17:44.783Z,11.15
2022-11-06T15:22:47.360Z,11.1
2022-11-06T15:27:50.164Z,11.02
2022-11-06T15:32:52.919Z,10.91
2022-11-06T15:37:56.083Z,10.75
2022-11-06T15:42:58.704Z,10.64
2022-11-06T15:48:01.250Z,10.62
2022-11-06T15:53:03.791Z,10.58
2022-11-06T15:58:06.381Z,10.44
2022-11-06T16:03:09.121Z,10.23
2022-11-06T16:08:54.497Z,10.19
2022-11-06T16:13:57.574Z,10.14
2022-11-06T16:24:30.467Z,10.1
2022-11-06T16:29:33.358Z,9.99
2022-11-06T16:34:35.602Z,9.89
2022-11-06T16:39:48.649Z,9.8
2022-11-06T16:44:40.897Z,9.73
2022-11-06T16:49:44.980Z,9.66
2022-11-06T16:54:46.404Z,9.67
2022-11-06T16:59:48.894Z,9.75
2022-11-06T17:04:51.431Z,9.62
2022-11-06T17:09:53.992Z,9.64
2022-11-06T17:14:56.676Z,9.55
2022-11-06T17:19:59.204Z,9.57
2022-11-06T17:25:01.734Z,9.4
2022-11-06T17:30:04.557Z,9.38
2022-11-06T17:35:07.013Z,9.27
2022-11-06T17:40:09.739Z,9.3
2022-11-06T17:45:12.498Z,9.22
2022-11-06T17:50:14.937Z,9.23
2022-11-06T17:55:20.339Z,9.28
2022-11-06T18:00:23.182Z,9.24
2022-11-06T18:05:25.856Z,9.21
2022-11-06T18:10:34.899Z,9.26
2022-11-06T18:15:37.774Z,9.21
2022-11-06T18:20:40.256Z,9.04
2022-11-06T18:25:42.848Z,8.99
2022-11-06T18:30:45.795Z,8.94
2022-11-06T18:35:48.270Z,8.89
2022-11-06T18:40:51.818Z,8.95
2022-11-06T18:45:53.854Z,8.98
2022-11-06T18:50:56.522Z,8.96
2022-11-06T18:55:59.065Z,8.98
2022-11-06T19:01:02.224Z,8.86
2022-11-06T19:06:03.934Z,8.75
2022-11-06T19:11:06.586Z,8.67
2022-11-06T19:21:11.972Z,8.49
2022-11-06T19:31:16.958Z,8.35
2022-11-06T19:36:19.383Z,8.28
2022-11-06T19:41:22.147Z,8.26
2022-11-06T19:46:28.368Z,8.23
2022-11-06T19:51:27.738Z,8.18
2022-11-06T19:56:30.500Z,8.29
2022-11-06T20:01:33.610Z,8.27
2022-11-06T20:06:36.524Z,8.23
2022-11-06T20:11:38.954Z,8.15
2022-11-06T20:16:41.747Z,8.18
2022-11-06T20:21:44.589Z,8.19
2022-11-06T20:26:47.171Z,8.09
2022-11-06T20:31:49.692Z,8.06
2022-11-06T20:36:52.592Z,8.09
2022-11-06T20:41:54.847Z,8.04
2022-11-06T20:46:57.533Z,8.01
2022-11-06T20:52:15.392Z,7.93
2022-11-06T20:57:02.750Z,7.86
2022-11-06T21:02:05.748Z,7.83
2022-11-06T21:07:08.144Z,7.84
2022-11-06T21:12:10.486Z,7.84
2022-11-06T21:17:13.235Z,7.89
2022-11-06T21:27:19.086Z,7.96
2022-11-06T21:32:21.487Z,7.95
2022-11-06T21:37:24.179Z,7.94
2022-11-06T21:42:26.860Z,7.96
2022-11-06T21:47:29.492Z,8.01
2022-11-06T21:52:32.129Z,8.08
2022-11-06T21:57:34.707Z,8.08
2022-11-06T22:02:40.611Z,8.14
2022-11-06T22:07:43.282Z,8.13
2022-11-06T22:12:45.783Z,8.14
2022-11-06T22:17:48.397Z,8.06
2022-11-06T22:22:50.932Z,8.11
2022-11-06T22:27:53.880Z,8
2022-11-06T22:32:56.507Z,7.97
2022-11-06T22:37:59.126Z,7.95
2022-11-06T22:43:01.753Z,7.96
2022-11-06T22:48:04.824Z,8.08
2022-11-06T22:53:12.105Z,8.02
2022-11-06T22:58:10.097Z,8.1
2022-11-06T23:03:13.177Z,8.16
2022-11-06T23:08:15.431Z,8.15
2022-11-06T23:13:18.048Z,8.24
2022-11-06T23:18:20.865Z,8.16
2022-11-06T23:23:23.728Z,8.27
2022-11-06T23:28:26.466Z,8.15
2022-11-06T23:33:29.158Z,8.11
2022-11-06T23:38:31.813Z,8.04
2022-11-06T23:43:34.434Z,8.1
2022-11-06T23:48:37.020Z,8.15
2022-11-06T23:53:39.592Z,8.2
2022-11-06T23:58:42.319Z,8.24
